CheckWX is a tool to help pilots better visualize weather data.  It is not intended as a substitute for an official pre-flight weather briefing.

22:42:56 UTC

KMIO METAR
Miami Regional Airport
Miami, Oklahoma, USA
Current

28 mins ago

KMIO 192215Z AUTO 35003KT 10SM CLR 21/11 A2976 RMK AO2
Observed
Oct-19 @ 22:15 UTC
Wind
  • 350° at 3 KTS
Visibility
10 SM
Flight Rules
VFR
Cloud Levels
  • Clear skies
Temperature
21°C / 70°F
Dewpoint
11°C / 52°F
Humidity
53%
Altimeter
29.76" Hg
Pressure
1007.82 hPa
Previous

48 mins ago

KMIO 192155Z AUTO 01007KT 8SM CLR 21/11 A2976 RMK AO2
Observed
Oct-19 @ 21:55 UTC
Wind
  • 010° at 7 KTS
Visibility
8 SM
Flight Rules
VFR
Cloud Levels
  • Clear skies
Temperature
21°C / 70°F
Dewpoint
11°C / 52°F
Humidity
53%
Altimeter
29.76" Hg
Pressure
1007.82 hPa
Previous

1 hour ago

KMIO 192135Z AUTO 36007KT 9SM FEW042 22/11 A2975 RMK AO2
Observed
Oct-19 @ 21:35 UTC
Wind
  • 360° at 7 KTS
Visibility
9 SM
Flight Rules
VFR
Cloud Levels
  • Few at 4,200' AGL
Temperature
22°C / 72°F
Dewpoint
11°C / 52°F
Humidity
50%
Altimeter
29.75" Hg
Pressure
1007.42 hPa